createdAt,value
2019-05-26T00:00:12.426Z,11.20
2019-05-26T00:02:41.328Z,11.20
2019-05-26T00:05:10.437Z,11.20
2019-05-26T00:07:39.119Z,11.10
2019-05-26T00:10:09.826Z,11.10
2019-05-26T00:12:39.396Z,11.00
2019-05-26T00:15:09.701Z,11.00
2019-05-26T00:17:39.474Z,11.00
2019-05-26T00:20:09.153Z,10.90
2019-05-26T00:22:38.172Z,10.90
2019-05-26T00:25:08.140Z,10.90
2019-05-26T00:27:42.580Z,10.90
2019-05-26T00:30:12.859Z,10.80
2019-05-26T00:32:42.409Z,10.80
2019-05-26T00:35:14.427Z,10.70
2019-05-26T00:37:49.630Z,10.70
2019-05-26T00:40:14.591Z,10.70
2019-05-26T00:42:43.089Z,10.70
2019-05-26T00:45:12.719Z,10.70
2019-05-26T00:47:42.248Z,10.70
2019-05-26T00:50:11.775Z,10.70
2019-05-26T00:52:40.459Z,10.80
2019-05-26T00:55:10.689Z,10.80
2019-05-26T00:57:40.271Z,10.80
2019-05-26T01:00:11.418Z,10.80
2019-05-26T01:02:42.164Z,10.80
2019-05-26T01:05:14.130Z,10.80
2019-05-26T01:07:43.621Z,10.70
2019-05-26T01:10:13.139Z,10.80
2019-05-26T01:12:42.683Z,10.80
2019-05-26T01:15:11.601Z,10.70
2019-05-26T01:17:40.454Z,10.60
2019-05-26T01:20:09.985Z,10.60
2019-05-26T01:22:38.659Z,10.50
2019-05-26T01:25:08.956Z,10.50
2019-05-26T01:27:38.586Z,10.40
2019-05-26T01:30:07.972Z,10.40
2019-05-26T01:32:37.942Z,10.40
2019-05-26T01:35:07.567Z,10.40
2019-05-26T01:37:38.832Z,10.30
2019-05-26T01:40:09.270Z,10.30
2019-05-26T01:42:38.984Z,10.20
2019-05-26T01:45:08.002Z,10.20
2019-05-26T01:47:38.590Z,10.10
2019-05-26T01:50:08.123Z,10.10
2019-05-26T01:52:36.765Z,10.10
2019-05-26T01:55:08.753Z,10.10
2019-05-26T01:57:37.603Z,10.10
2019-05-26T02:00:07.052Z,10.10
2019-05-26T02:02:35.711Z,10.10
2019-05-26T02:05:05.427Z,10.10
2019-05-26T02:07:34.197Z,10.20
2019-05-26T02:10:04.503Z,10.20
2019-05-26T02:12:33.283Z,10.20
2019-05-26T02:15:02.329Z,10.20
2019-05-26T02:17:30.894Z,10.20
2019-05-26T02:19:59.563Z,10.20
2019-05-26T02:22:29.204Z,10.10
2019-05-26T02:24:57.889Z,10.10
2019-05-26T02:27:27.427Z,10.00
2019-05-26T02:29:56.085Z,10.00
2019-05-26T02:32:25.041Z,10.00
2019-05-26T02:34:54.870Z,10.00
2019-05-26T02:37:24.662Z,10.00
2019-05-26T02:39:53.211Z,10.00
2019-05-26T02:42:22.009Z,10.10
2019-05-26T02:44:50.825Z,10.10
2019-05-26T02:47:19.349Z,10.20
2019-05-26T02:49:48.138Z,10.20
2019-05-26T02:52:16.669Z,10.30
2019-05-26T02:54:45.427Z,10.30
2019-05-26T02:57:14.965Z,10.30
2019-05-26T02:59:43.994Z,10.30
2019-05-26T03:02:12.756Z,10.40
2019-05-26T03:04:41.758Z,10.30
2019-05-26T03:07:12.533Z,10.30
2019-05-26T03:09:44.372Z,10.40
2019-05-26T03:12:13.754Z,10.50
2019-05-26T03:14:44.286Z,10.40
2019-05-26T03:17:13.010Z,10.60
2019-05-26T03:19:44.363Z,10.70
2019-05-26T03:22:15.984Z,10.80
2019-05-26T03:24:48.256Z,10.80
2019-05-26T03:27:16.748Z,10.90
2019-05-26T03:29:45.296Z,10.90
2019-05-26T03:32:13.981Z,10.90
2019-05-26T03:34:44.048Z,10.90
2019-05-26T03:37:12.721Z,11.00
2019-05-26T03:39:45.406Z,11.10
2019-05-26T03:42:11.810Z,11.20
2019-05-26T03:44:40.431Z,11.20
2019-05-26T03:47:16.767Z,11.40
2019-05-26T03:49:44.272Z,11.50
2019-05-26T03:52:13.435Z,11.60
2019-05-26T03:54:42.595Z,11.70
2019-05-26T03:57:11.495Z,11.80
2019-05-26T03:59:40.043Z,11.90
2019-05-26T04:02:10.014Z,11.90
2019-05-26T04:04:39.749Z,12.00
2019-05-26T04:07:08.298Z,12.10
2019-05-26T04:09:36.814Z,12.10
2019-05-26T04:12:08.724Z,12.20
2019-05-26T04:14:39.908Z,12.20
2019-05-26T04:17:09.398Z,12.30
2019-05-26T04:19:38.013Z,12.40
2019-05-26T04:22:06.785Z,12.30
2019-05-26T04:24:36.697Z,12.20
2019-05-26T04:27:05.245Z,12.10
2019-05-26T04:29:33.995Z,12.10
2019-05-26T04:32:03.555Z,12.00
2019-05-26T04:34:32.093Z,12.00
2019-05-26T04:37:00.719Z,12.10
2019-05-26T04:39:29.310Z,12.20
2019-05-26T04:41:57.864Z,12.30
2019-05-26T04:44:26.513Z,12.50
2019-05-26T04:46:55.245Z,12.60
2019-05-26T04:49:23.896Z,12.90
2019-05-26T04:51:53.543Z,12.90
2019-05-26T04:54:23.380Z,12.90
2019-05-26T04:56:51.905Z,13.10
2019-05-26T04:59:20.679Z,13.20
2019-05-26T05:01:49.389Z,13.40
2019-05-26T05:04:18.059Z,13.90
2019-05-26T05:06:46.600Z,14.00
2019-05-26T05:09:15.614Z,13.90
2019-05-26T05:11:44.803Z,14.00
2019-05-26T05:14:13.271Z,14.00
2019-05-26T05:16:41.942Z,14.10
2019-05-26T05:19:10.806Z,14.20
2019-05-26T05:21:39.281Z,14.10
2019-05-26T05:24:08.002Z,13.80
2019-05-26T05:26:36.557Z,13.70
2019-05-26T05:29:05.461Z,13.50
2019-05-26T05:31:34.040Z,13.70
2019-05-26T05:34:03.171Z,13.80
2019-05-26T05:36:35.203Z,13.90
2019-05-26T05:39:07.526Z,14.20
2019-05-26T05:41:36.197Z,14.30
2019-05-26T05:44:06.117Z,14.50
2019-05-26T05:46:37.651Z,14.40
2019-05-26T05:49:06.124Z,14.40
2019-05-26T05:51:34.598Z,14.60
2019-05-26T05:54:03.214Z,14.80
2019-05-26T05:56:34.637Z,14.80
2019-05-26T05:59:03.436Z,15.00
2019-05-26T06:01:32.220Z,15.50
2019-05-26T06:04:02.362Z,15.80
2019-05-26T06:06:31.969Z,15.50
2019-05-26T06:09:00.862Z,15.90
2019-05-26T06:11:30.612Z,16.20
2019-05-26T06:13:59.278Z,16.50
2019-05-26T06:16:28.299Z,16.50
2019-05-26T06:18:57.064Z,16.60
2019-05-26T06:21:26.015Z,16.50
2019-05-26T06:23:54.538Z,16.40
2019-05-26T06:26:24.412Z,16.30
2019-05-26T06:28:53.387Z,16.40
2019-05-26T06:31:22.177Z,16.30
2019-05-26T06:33:51.241Z,16.10
2019-05-26T06:36:20.067Z,16.30
2019-05-26T06:38:48.615Z,16.60
2019-05-26T06:41:32.410Z,16.70
2019-05-26T06:43:47.706Z,17.00
2019-05-26T06:46:16.486Z,17.00
2019-05-26T06:48:45.008Z,17.30
2019-05-26T06:51:13.681Z,17.10
2019-05-26T06:53:42.277Z,18.50
2019-05-26T06:56:11.079Z,19.60
2019-05-26T06:58:42.611Z,20.00
2019-05-26T07:01:11.478Z,20.70
2019-05-26T07:03:39.964Z,20.90
2019-05-26T07:06:08.838Z,20.20
2019-05-26T07:08:38.631Z,21.50
2019-05-26T07:11:08.104Z,22.40
2019-05-26T07:13:40.544Z,21.30
2019-05-26T07:16:09.609Z,21.30
2019-05-26T07:18:40.027Z,22.10
2019-05-26T07:21:08.515Z,22.40
2019-05-26T07:23:37.727Z,22.40
2019-05-26T07:26:06.797Z,21.60
2019-05-26T07:28:35.471Z,21.20
2019-05-26T07:31:05.955Z,20.50
2019-05-26T07:33:34.503Z,20.00
2019-05-26T07:36:06.035Z,19.70
2019-05-26T07:38:35.719Z,18.80
2019-05-26T07:41:04.259Z,18.60
2019-05-26T07:43:34.917Z,18.40
2019-05-26T07:46:03.474Z,17.90
2019-05-26T07:48:35.855Z,18.40
2019-05-26T07:51:03.062Z,19.10
2019-05-26T07:53:31.558Z,20.10
2019-05-26T07:56:01.747Z,20.60
2019-05-26T07:58:31.599Z,20.30
2019-05-26T08:01:00.451Z,19.00
2019-05-26T08:03:30.119Z,18.30
2019-05-26T08:05:58.843Z,18.00
2019-05-26T08:08:27.432Z,17.50
2019-05-26T08:10:56.218Z,17.50
2019-05-26T08:13:24.900Z,17.20
2019-05-26T08:15:56.910Z,17.60
2019-05-26T08:18:26.372Z,17.90
2019-05-26T08:20:56.757Z,18.60
2019-05-26T08:23:25.371Z,19.30
2019-05-26T08:25:59.716Z,19.60
2019-05-26T08:28:28.537Z,19.40
2019-05-26T08:30:58.443Z,18.90
2019-05-26T08:33:26.918Z,19.10
2019-05-26T08:35:57.528Z,19.40
2019-05-26T08:38:26.095Z,19.80
2019-05-26T08:40:55.679Z,20.20
2019-05-26T08:43:24.365Z,19.70
2019-05-26T08:45:53.269Z,19.60
2019-05-26T08:48:22.221Z,20.10
2019-05-26T08:50:50.735Z,20.00
2019-05-26T08:53:20.278Z,19.30
2019-05-26T08:55:50.990Z,18.90
2019-05-26T08:58:19.733Z,18.80
2019-05-26T09:00:48.374Z,18.60
2019-05-26T09:03:17.885Z,18.20
2019-05-26T09:05:46.618Z,18.10
2019-05-26T09:08:17.369Z,18.10
2019-05-26T09:10:45.834Z,18.80
2019-05-26T09:13:14.724Z,19.10
2019-05-26T09:15:43.688Z,19.50
2019-05-26T09:18:13.304Z,19.80
2019-05-26T09:20:41.906Z,20.10
2019-05-26T09:23:10.432Z,20.00
2019-05-26T09:25:41.398Z,20.10
2019-05-26T09:28:10.509Z,20.80
2019-05-26T09:30:43.106Z,20.10
2019-05-26T09:33:11.952Z,19.10
2019-05-26T09:35:40.751Z,18.90
2019-05-26T09:38:09.221Z,18.90
2019-05-26T09:40:37.693Z,19.20
2019-05-26T09:43:15.699Z,19.20
2019-05-26T09:45:36.726Z,19.40
2019-05-26T09:48:05.355Z,20.20
2019-05-26T09:50:34.034Z,20.30
2019-05-26T09:53:02.576Z,20.40
2019-05-26T09:55:31.053Z,20.40
2019-05-26T09:57:59.646Z,20.30
2019-05-26T10:00:30.455Z,20.50
2019-05-26T10:02:59.059Z,20.40
2019-05-26T10:05:27.833Z,20.80
2019-05-26T10:07:58.967Z,21.10
2019-05-26T10:10:27.566Z,20.80
2019-05-26T10:12:56.087Z,20.90
2019-05-26T10:15:24.616Z,20.20
2019-05-26T10:17:53.356Z,19.40
2019-05-26T10:20:22.024Z,19.00
2019-05-26T10:22:50.592Z,18.60
2019-05-26T10:25:20.200Z,18.40
2019-05-26T10:27:49.250Z,18.40
2019-05-26T10:30:19.919Z,18.90
2019-05-26T10:32:50.305Z,19.40
2019-05-26T10:35:19.055Z,19.70
2019-05-26T10:37:48.948Z,20.50
2019-05-26T10:40:18.402Z,20.60
2019-05-26T10:42:47.982Z,20.50
2019-05-26T10:45:17.799Z,20.60
2019-05-26T10:47:46.334Z,20.10
2019-05-26T10:50:16.026Z,20.10
2019-05-26T10:52:44.639Z,19.90
2019-05-26T10:55:13.166Z,20.10
2019-05-26T10:57:41.698Z,19.50
2019-05-26T11:00:11.572Z,19.20
2019-05-26T11:02:45.933Z,19.60
2019-05-26T11:05:14.994Z,19.80
2019-05-26T11:07:43.458Z,20.00
2019-05-26T11:10:12.902Z,19.80
2019-05-26T11:12:41.611Z,19.80
2019-05-26T11:15:12.242Z,20.10
2019-05-26T11:17:40.975Z,20.20
2019-05-26T11:20:11.822Z,20.10
2019-05-26T11:22:40.426Z,20.10
2019-05-26T11:25:09.897Z,19.80
2019-05-26T11:27:38.423Z,19.70
2019-05-26T11:30:12.863Z,20.00
2019-05-26T11:32:41.442Z,20.20
2019-05-26T11:35:11.135Z,20.60
2019-05-26T11:37:41.900Z,20.30
2019-05-26T11:40:11.437Z,20.30
2019-05-26T11:42:40.140Z,20.00
2019-05-26T11:45:10.830Z,19.80
2019-05-26T11:47:39.574Z,19.60
2019-05-26T11:50:09.536Z,19.60
2019-05-26T11:52:38.493Z,19.70
2019-05-26T11:55:08.230Z,19.60
2019-05-26T11:57:37.560Z,19.30
2019-05-26T12:00:13.095Z,19.70
2019-05-26T12:02:44.702Z,19.80
2019-05-26T12:05:17.494Z,19.60
2019-05-26T12:07:44.609Z,19.60
2019-05-26T12:10:14.529Z,19.80
2019-05-26T12:12:43.935Z,19.90
2019-05-26T12:15:15.160Z,20.00
2019-05-26T12:17:43.976Z,20.40
2019-05-26T12:20:14.966Z,20.60
2019-05-26T12:22:44.079Z,20.60
2019-05-26T12:25:13.988Z,20.70
2019-05-26T12:27:42.592Z,21.00
2019-05-26T12:30:12.141Z,20.90
2019-05-26T12:32:40.960Z,21.00
2019-05-26T12:35:09.963Z,21.00
2019-05-26T12:37:39.502Z,21.00
2019-05-26T12:40:09.416Z,20.80
2019-05-26T12:42:38.040Z,20.70
2019-05-26T12:45:08.512Z,20.50
2019-05-26T12:47:37.443Z,20.70
2019-05-26T12:50:07.414Z,20.70
2019-05-26T12:52:36.581Z,20.50
2019-05-26T12:55:09.463Z,20.40
2019-05-26T12:57:38.380Z,20.40
2019-05-26T13:00:11.368Z,20.60
2019-05-26T13:02:40.036Z,20.90
2019-05-26T13:05:10.080Z,20.80
2019-05-26T13:07:39.311Z,20.40
2019-05-26T13:10:09.581Z,20.50
2019-05-26T13:12:38.336Z,20.80
2019-05-26T13:15:11.931Z,20.70
2019-05-26T13:17:40.580Z,20.50
2019-05-26T13:20:10.864Z,20.70
2019-05-26T13:22:40.517Z,20.80
2019-05-26T13:25:13.951Z,20.70
2019-05-26T13:27:42.748Z,20.90
2019-05-26T13:30:15.245Z,21.00
2019-05-26T13:32:43.767Z,20.80
2019-05-26T13:35:15.221Z,20.80
2019-05-26T13:37:44.021Z,20.80
2019-05-26T13:40:13.469Z,20.90
2019-05-26T13:42:42.257Z,20.90
2019-05-26T13:45:22.301Z,20.60
2019-05-26T13:47:42.885Z,20.60
2019-05-26T13:50:12.363Z,20.90
2019-05-26T13:52:41.083Z,21.00
2019-05-26T13:55:10.120Z,21.00
2019-05-26T13:57:38.922Z,21.10
2019-05-26T14:00:10.082Z,21.20
2019-05-26T14:02:38.758Z,21.20
2019-05-26T14:05:14.352Z,21.30
2019-05-26T14:07:46.505Z,21.30
2019-05-26T14:10:21.991Z,21.40
2019-05-26T14:12:50.576Z,21.50
2019-05-26T14:15:19.377Z,21.40
2019-05-26T14:17:49.294Z,21.50
2019-05-26T14:20:22.151Z,21.40
2019-05-26T14:22:51.850Z,21.30
2019-05-26T14:25:20.579Z,21.30
2019-05-26T14:27:49.256Z,21.20
2019-05-26T14:30:21.377Z,21.00
2019-05-26T14:32:51.138Z,20.90
2019-05-26T14:35:20.621Z,20.90
2019-05-26T14:37:50.126Z,20.90
2019-05-26T14:40:19.221Z,21.00
2019-05-26T14:42:48.722Z,21.10
2019-05-26T14:45:17.831Z,21.30
2019-05-26T14:47:46.546Z,21.30
2019-05-26T14:50:16.012Z,21.40
2019-05-26T14:52:44.705Z,21.40
2019-05-26T14:55:14.267Z,21.30
2019-05-26T14:57:43.179Z,21.30
2019-05-26T15:00:12.799Z,21.20
2019-05-26T15:02:41.543Z,21.00
2019-05-26T15:05:10.512Z,21.00
2019-05-26T15:07:39.268Z,20.80
2019-05-26T15:10:11.706Z,20.90
2019-05-26T15:12:40.388Z,20.90
2019-05-26T15:15:10.643Z,20.70
2019-05-26T15:17:39.388Z,20.70
2019-05-26T15:20:09.278Z,20.70
2019-05-26T15:22:38.774Z,20.60
2019-05-26T15:25:08.527Z,20.60
2019-05-26T15:27:36.995Z,20.60
2019-05-26T15:30:06.889Z,20.60
2019-05-26T15:32:36.853Z,20.60
2019-05-26T15:35:07.858Z,20.60
2019-05-26T15:37:36.910Z,20.60
2019-05-26T15:40:08.201Z,20.60
2019-05-26T15:42:37.746Z,20.50
2019-05-26T15:45:07.994Z,20.70
2019-05-26T15:47:36.815Z,20.80
2019-05-26T15:50:07.831Z,20.90
2019-05-26T15:52:43.517Z,20.90
2019-05-26T15:55:12.996Z,20.80
2019-05-26T15:57:41.736Z,20.70
2019-05-26T16:00:10.853Z,20.70
2019-05-26T16:02:39.857Z,20.70
2019-05-26T16:05:08.973Z,20.60
2019-05-26T16:07:37.744Z,20.50
2019-05-26T16:10:09.691Z,20.40
2019-05-26T16:12:38.332Z,20.30
2019-05-26T16:15:10.716Z,20.30
2019-05-26T16:17:40.026Z,20.30
2019-05-26T16:20:09.650Z,20.30
2019-05-26T16:22:38.761Z,20.40
2019-05-26T16:25:08.304Z,20.50
2019-05-26T16:27:36.983Z,20.40
2019-05-26T16:30:09.440Z,20.50
2019-05-26T16:32:38.352Z,20.50
2019-05-26T16:35:07.898Z,20.60
2019-05-26T16:37:36.709Z,20.60
2019-05-26T16:40:06.442Z,20.60
2019-05-26T16:42:35.202Z,20.60
2019-05-26T16:45:05.161Z,20.50
2019-05-26T16:47:33.962Z,20.60
2019-05-26T16:50:02.566Z,20.60
2019-05-26T16:52:31.391Z,20.60
2019-05-26T16:54:59.908Z,20.60
2019-05-26T16:57:29.412Z,20.60
2019-05-26T16:59:59.743Z,20.60
2019-05-26T17:02:28.416Z,20.60
2019-05-26T17:05:07.328Z,20.60
2019-05-26T17:07:36.015Z,20.60
2019-05-26T17:10:08.850Z,20.60
2019-05-26T17:12:39.557Z,20.60
2019-05-26T17:15:09.844Z,20.70
2019-05-26T17:17:39.344Z,20.60
2019-05-26T17:20:09.735Z,20.70
2019-05-26T17:22:38.378Z,20.70
2019-05-26T17:25:07.929Z,20.50
2019-05-26T17:27:36.499Z,20.40
2019-05-26T17:30:08.509Z,20.20
2019-05-26T17:32:37.229Z,20.10
2019-05-26T17:35:07.175Z,20.00
2019-05-26T17:37:36.407Z,20.10
2019-05-26T17:40:07.321Z,19.90
2019-05-26T17:42:35.828Z,19.90
2019-05-26T17:45:06.741Z,19.80
2019-05-26T17:47:36.324Z,19.80
2019-05-26T17:50:09.552Z,19.80
2019-05-26T17:52:38.753Z,19.70
2019-05-26T17:55:09.729Z,19.70
2019-05-26T17:57:39.253Z,19.60
2019-05-26T18:00:13.991Z,19.50
2019-05-26T18:02:42.719Z,19.40
2019-05-26T18:05:12.666Z,19.30
2019-05-26T18:07:41.483Z,19.20
2019-05-26T18:10:10.880Z,19.10
2019-05-26T18:12:39.610Z,19.10
2019-05-26T18:15:09.450Z,19.10
2019-05-26T18:17:47.051Z,19.00
2019-05-26T18:20:10.168Z,18.80
2019-05-26T18:22:38.798Z,18.70
2019-05-26T18:25:08.297Z,18.60
2019-05-26T18:27:37.192Z,18.40
2019-05-26T18:30:10.199Z,18.40
2019-05-26T18:32:38.880Z,18.30
2019-05-26T18:35:08.454Z,18.20
2019-05-26T18:37:37.689Z,18.10
2019-05-26T18:40:09.777Z,18.00
2019-05-26T18:42:38.576Z,17.90
2019-05-26T18:45:11.335Z,17.80
2019-05-26T18:47:39.857Z,17.70
2019-05-26T18:50:10.709Z,17.60
2019-05-26T18:52:39.470Z,17.60
2019-05-26T18:55:09.006Z,17.50
2019-05-26T18:57:38.862Z,17.50
2019-05-26T19:00:08.356Z,17.40
2019-05-26T19:02:37.008Z,17.50
2019-05-26T19:05:07.025Z,17.50
2019-05-26T19:07:36.543Z,17.40
2019-05-26T19:10:07.200Z,17.50
2019-05-26T19:12:36.044Z,17.50
2019-05-26T19:15:08.236Z,17.50
2019-05-26T19:17:36.828Z,17.50
2019-05-26T19:20:16.115Z,17.60
2019-05-26T19:22:37.690Z,17.60
2019-05-26T19:25:07.499Z,17.60
2019-05-26T19:27:36.220Z,17.60
2019-05-26T19:30:08.153Z,17.70
2019-05-26T19:32:36.680Z,17.70
2019-05-26T19:35:07.595Z,17.60
2019-05-26T19:37:36.260Z,17.60
2019-05-26T19:40:07.836Z,17.50
2019-05-26T19:42:36.513Z,17.50
2019-05-26T19:45:07.966Z,17.50
2019-05-26T19:47:36.564Z,17.40
2019-05-26T19:50:09.063Z,17.40
2019-05-26T19:52:37.837Z,17.30
2019-05-26T19:55:09.529Z,17.30
2019-05-26T19:57:40.063Z,17.20
2019-05-26T20:00:16.082Z,17.30
2019-05-26T20:02:47.399Z,17.20
2019-05-26T20:05:17.576Z,17.20
2019-05-26T20:07:46.235Z,17.20
2019-05-26T20:10:15.799Z,17.20
2019-05-26T20:12:45.715Z,17.20
2019-05-26T20:15:15.236Z,17.20
2019-05-26T20:17:44.264Z,17.10
2019-05-26T20:20:14.221Z,17.10
2019-05-26T20:22:42.971Z,17.00
2019-05-26T20:25:13.118Z,17.00
2019-05-26T20:27:42.133Z,17.10
2019-05-26T20:30:12.189Z,17.10
2019-05-26T20:32:40.999Z,17.10
2019-05-26T20:35:10.454Z,17.10
2019-05-26T20:37:39.560Z,17.10
2019-05-26T20:40:12.330Z,17.00
2019-05-26T20:42:41.052Z,17.00
2019-05-26T20:45:11.375Z,17.00
2019-05-26T20:47:39.981Z,17.00
2019-05-26T20:50:09.571Z,17.00
2019-05-26T20:52:38.679Z,17.00
2019-05-26T20:55:08.140Z,17.00
2019-05-26T20:57:36.819Z,17.00
2019-05-26T21:00:09.153Z,16.90
2019-05-26T21:02:39.901Z,16.90
2019-05-26T21:05:09.467Z,17.00
2019-05-26T21:07:38.214Z,16.90
2019-05-26T21:10:08.024Z,16.90
2019-05-26T21:12:36.701Z,16.90
2019-05-26T21:15:07.492Z,16.80
2019-05-26T21:17:37.895Z,16.70
2019-05-26T21:20:08.089Z,16.70
2019-05-26T21:22:36.832Z,16.60
2019-05-26T21:25:06.291Z,16.60
2019-05-26T21:27:34.969Z,16.60
2019-05-26T21:30:06.130Z,16.60
2019-05-26T21:32:34.808Z,16.60
2019-05-26T21:35:04.235Z,16.60
2019-05-26T21:37:32.989Z,16.60
2019-05-26T21:40:01.856Z,16.50
2019-05-26T21:42:30.448Z,16.60
2019-05-26T21:45:00.481Z,16.60
2019-05-26T21:47:28.968Z,16.60
2019-05-26T21:49:57.528Z,16.50
2019-05-26T21:52:26.263Z,16.40
2019-05-26T21:54:54.817Z,16.30
2019-05-26T21:57:23.690Z,16.20
2019-05-26T21:59:52.197Z,16.20
2019-05-26T22:02:26.404Z,16.10
2019-05-26T22:04:55.109Z,16.00
2019-05-26T22:07:23.830Z,16.00
2019-05-26T22:09:52.870Z,15.90
2019-05-26T22:12:21.556Z,15.90
2019-05-26T22:14:50.337Z,15.90
2019-05-26T22:17:19.366Z,15.90
2019-05-26T22:19:48.868Z,15.90
2019-05-26T22:22:17.602Z,15.90
2019-05-26T22:24:47.475Z,15.90
2019-05-26T22:27:16.979Z,15.90
2019-05-26T22:29:45.581Z,15.80
2019-05-26T22:32:16.399Z,15.70
2019-05-26T22:34:45.081Z,15.70
2019-05-26T22:37:15.869Z,15.70
2019-05-26T22:39:44.477Z,15.70
2019-05-26T22:42:16.029Z,15.70
2019-05-26T22:44:47.208Z,15.70
2019-05-26T22:47:16.810Z,15.70
2019-05-26T22:49:45.299Z,15.70
2019-05-26T22:52:17.795Z,15.70
2019-05-26T22:54:52.570Z,15.70
2019-05-26T22:57:21.322Z,15.60
2019-05-26T22:59:50.101Z,15.70
2019-05-26T23:02:19.901Z,15.60
2019-05-26T23:04:48.500Z,15.60
2019-05-26T23:07:17.220Z,15.60
2019-05-26T23:09:45.935Z,15.60
2019-05-26T23:12:14.535Z,15.60
2019-05-26T23:14:43.075Z,15.50
2019-05-26T23:17:11.544Z,15.60
2019-05-26T23:19:40.083Z,15.60
2019-05-26T23:22:08.739Z,15.60
2019-05-26T23:24:37.207Z,15.70
2019-05-26T23:27:06.340Z,15.60
2019-05-26T23:29:34.986Z,15.70
2019-05-26T23:32:03.764Z,15.70
2019-05-26T23:34:32.360Z,15.70
2019-05-26T23:37:01.121Z,15.70
2019-05-26T23:39:29.745Z,15.70
2019-05-26T23:41:58.472Z,15.90
2019-05-26T23:44:32.859Z,15.90
2019-05-26T23:47:01.551Z,15.80
2019-05-26T23:49:30.054Z,15.80
2019-05-26T23:51:58.514Z,15.80
2019-05-26T23:54:27.191Z,15.90
2019-05-26T23:56:56.216Z,16.00
2019-05-26T23:59:25.777Z,16.00
